Baker, Nevada
Current Conditions -  °F | °C
As of 9:53 AM on Thursday 30 Oct 2014 (Local Time) from KELY Reporting Station
Clear Clear  
Wind Chill: 55°   Ceiling: Unl
Heat Index: 55°   Visibility: 10mi
Dew Point: 21°   Wind: 0mph
Humidity: 27%   Direction: NA
Pressure: 30.29"   Gusts: NA
Location:  39.01°N, 114.13°W
Report Text: KELY 301653Z AUTO 00000KT 10SM CLR 13/M06 A3029 RMK AO2 SLP214 T01281061
Loading
Personal Weather Stations






























Interactive Weather Map
Tropical Storm Tracking
New forecast layout! Learn more

10-Day Weather Forecast

Advertisements
Track Severe Weather on mobile